Time;durP1;ratioP1;P1;durP2;ratioP2;P2;SDS_P1;SDS_P2;PMS_P1;PMS_P2;Temp;Humidity;BMP_temperature;BMP_pressure;BME280_temperature;BME280_humidity;BME280_pressure;Samples;Min_cycle;Max_cycle;Signal;HPM_P1;HPM_P2
2023/07/22 00:00:13;;;;;;;14.07;12.77;;;13.00;1.00;;;;;;2614917;54;20414;-70
2023/07/22 00:10:07;;;;;;;14.97;12.90;;;13.10;1.00;;;;;;2611882;54;20428;-70
2023/07/22 00:15:55;;;;;;;14.37;13.00;;;13.10;1.00;;;;;;2612854;54;20464;-70
2023/07/22 00:21:44;;;;;;;13.87;12.57;;;13.30;1.00;;;;;;2613517;54;21104;-70
2023/07/22 00:27:32;;;;;;;14.67;13.17;;;13.40;1.00;;;;;;2613030;54;20398;-70
2023/07/22 00:33:19;;;;;;;14.23;13.03;;;13.40;1.00;;;;;;2613347;54;20172;-70
2023/07/22 00:39:07;;;;;;;16.03;13.07;;;13.50;1.00;;;;;;2614319;54;20134;-69
2023/07/22 00:44:55;;;;;;;12.70;11.50;;;13.50;1.00;;;;;;2613715;54;20123;-69
2023/07/22 00:50:43;;;;;;;12.80;11.77;;;13.60;1.00;;;;;;2614044;54;20442;-69
2023/07/22 00:56:35;;;;;;;15.23;13.33;;;13.70;1.00;;;;;;2614343;39;20535;-69
2023/07/22 01:02:23;;;;;;;14.13;12.83;;;13.70;1.00;;;;;;2613355;54;20395;-69
2023/07/22 01:05:38;;;;;;;14.33;12.70;;;13.60;1.00;;;;;;2612723;54;20403;-69
2023/07/22 01:08:04;;;;;;;13.13;12.03;;;13.60;1.00;;;;;;2614015;54;20159;-69
2023/07/22 01:13:57;;;;;;;13.80;12.37;;;13.50;1.00;;;;;;2614129;54;20534;-69
2023/07/22 01:19:46;;;;;;;13.53;12.20;;;13.40;1.00;;;;;;2613108;54;20431;-69
2023/07/22 01:25:34;;;;;;;13.53;12.23;;;13.40;1.00;;;;;;2612974;54;20395;-69
2023/07/22 01:31:22;;;;;;;14.53;13.17;;;13.40;1.00;;;;;;2614600;54;20177;-69
2023/07/22 01:37:10;;;;;;;14.13;12.80;;;13.40;1.00;;;;;;2613774;54;20168;-69
2023/07/22 01:42:58;;;;;;;14.90;13.47;;;13.50;1.00;;;;;;2613290;54;20133;-69
2023/07/22 01:48:46;;;;;;;14.07;12.60;;;13.60;1.00;;;;;;2613471;54;20201;-69
2023/07/22 01:54:33;;;;;;;14.20;13.00;;;13.50;1.00;;;;;;2613408;54;20152;-70
2023/07/22 02:00:21;;;;;;;13.93;12.33;;;13.60;1.00;;;;;;2613297;54;20166;-69
2023/07/22 02:16:37;;;;;;;13.83;12.43;;;13.60;1.00;;;;;;2611767;54;20501;-70
2023/07/22 02:22:24;;;;;;;14.87;13.13;;;13.70;1.00;;;;;;2611313;54;20399;-70
2023/07/22 02:28:11;;;;;;;13.60;12.20;;;13.70;1.00;;;;;;2611735;54;20262;-70
2023/07/22 02:33:58;;;;;;;13.63;11.53;;;13.70;1.00;;;;;;2612740;46;21539;-70
2023/07/22 02:39:46;;;;;;;13.90;12.37;;;13.80;1.00;;;;;;2613342;54;20154;-71
2023/07/22 02:45:34;;;;;;;13.30;12.00;;;13.90;1.00;;;;;;2613748;54;20142;-70
2023/07/22 02:51:21;;;;;;;14.50;13.10;;;14.00;1.00;;;;;;2612534;54;20436;-71
2023/07/22 02:57:09;;;;;;;14.73;11.87;;;14.10;1.00;;;;;;2612499;39;20194;-70
2023/07/22 03:03:00;;;;;;;13.77;12.53;;;14.10;1.00;;;;;;2613599;54;20134;-77
2023/07/22 03:05:38;;;;;;;14.43;13.13;;;14.10;1.00;;;;;;2614214;54;20420;-78
2023/07/22 03:08:04;;;;;;;14.57;13.17;;;14.10;1.00;;;;;;2613574;39;20802;-78
2023/07/22 03:13:52;;;;;;;13.77;12.37;;;14.10;1.00;;;;;;2614506;54;20383;-78
2023/07/22 03:19:40;;;;;;;13.87;12.57;;;14.20;1.00;;;;;;2614067;54;20122;-80
2023/07/22 03:25:27;;;;;;;17.77;13.03;;;14.20;1.00;;;;;;2614403;54;20371;-78
2023/07/22 03:31:15;;;;;;;13.70;12.33;;;14.30;1.00;;;;;;2614070;54;20134;-79
2023/07/22 03:37:03;;;;;;;13.00;11.70;;;14.30;1.00;;;;;;2614341;54;20156;-79
2023/07/22 03:42:51;;;;;;;13.23;12.03;;;14.40;1.00;;;;;;2613111;54;20146;-79
2023/07/22 03:48:39;;;;;;;12.63;11.53;;;14.40;1.00;;;;;;2612452;54;20373;-78
2023/07/22 03:54:27;;;;;;;13.17;11.97;;;14.40;1.00;;;;;;2613849;54;20237;-76
2023/07/22 04:00:15;;;;;;;13.50;12.40;;;14.40;1.00;;;;;;2613932;46;20146;-76
2023/07/22 04:10:11;;;;;;;11.37;10.50;;;14.40;1.00;;;;;;2613654;54;20416;-77
2023/07/22 04:13:14;;;;;;;12.70;11.60;;;14.50;1.00;;;;;;2614673;39;20450;-77
2023/07/22 04:15:40;;;;;;;15.57;11.30;;;14.50;1.00;;;;;;2612304;54;20427;-77
2023/07/22 04:21:27;;;;;;;13.20;12.00;;;14.50;1.00;;;;;;2613473;54;20134;-78
2023/07/22 04:27:16;;;;;;;11.67;10.43;;;14.60;1.00;;;;;;2612794;54;20149;-78
2023/07/22 04:33:10;;;;;;;12.87;11.60;;;14.60;1.00;;;;;;2612883;54;20414;-78
2023/07/22 04:38:57;;;;;;;13.37;11.97;;;14.70;1.00;;;;;;2613582;54;20395;-77
2023/07/22 04:44:45;;;;;;;12.63;10.83;;;14.60;1.00;;;;;;2613789;54;20542;-78
2023/07/22 04:50:33;;;;;;;12.20;11.10;;;14.70;1.00;;;;;;2612080;54;20180;-77
2023/07/22 04:56:21;;;;;;;13.27;12.10;;;14.80;1.00;;;;;;2613458;54;20434;-77
2023/07/22 05:02:09;;;;;;;12.03;11.03;;;14.80;1.00;;;;;;2613639;54;20223;-78
2023/07/22 05:07:57;;;;;;;11.57;10.57;;;15.00;1.00;;;;;;2613540;39;20641;-77
2023/07/22 05:13:45;;;;;;;13.60;12.23;;;15.10;1.00;;;;;;2614939;54;20130;-78
2023/07/22 05:19:32;;;;;;;12.93;11.80;;;15.10;1.00;;;;;;2614097;54;20154;-78
2023/07/22 05:25:20;;;;;;;13.10;12.00;;;15.30;1.00;;;;;;2615069;54;20130;-77
2023/07/22 05:31:08;;;;;;;12.60;11.47;;;15.40;1.00;;;;;;2613037;54;21303;-76
2023/07/22 05:36:56;;;;;;;18.73;11.60;;;15.40;1.00;;;;;;2613401;54;20181;-77
2023/07/22 05:42:43;;;;;;;11.83;11.03;;;15.40;1.00;;;;;;2614429;54;20158;-78
2023/07/22 05:48:31;;;;;;;11.83;10.73;;;15.40;1.00;;;;;;2613764;54;20175;-78
2023/07/22 05:54:19;;;;;;;12.83;11.73;;;15.80;1.00;;;;;;2613551;54;20122;-78
2023/07/22 06:00:08;;;;;;;12.23;11.30;;;16.70;1.00;;;;;;2613763;54;20162;-77
2023/07/22 06:10:11;;;;;;;13.00;12.00;;;17.00;1.00;;;;;;2613760;39;20861;-78
2023/07/22 06:15:59;;;;;;;12.80;11.80;;;17.30;1.00;;;;;;2614283;54;20415;-78
2023/07/22 06:21:46;;;;;;;13.10;12.00;;;17.50;1.00;;;;;;2612947;54;20130;-78
2023/07/22 06:27:35;;;;;;;14.00;12.80;;;17.40;1.00;;;;;;2612310;54;20144;-78
2023/07/22 06:33:23;;;;;;;13.57;12.57;;;17.70;1.00;;;;;;2615210;39;20764;-78
2023/07/22 06:39:10;;;;;;;13.80;12.70;;;18.10;1.00;;;;;;2615224;54;20169;-78
2023/07/22 06:45:01;;;;;;;14.83;13.50;;;18.10;1.00;;;;;;2615621;54;20231;-78
2023/07/22 06:50:49;;;;;;;14.90;13.90;;;18.20;1.00;;;;;;2612377;54;20472;-78
2023/07/22 06:56:37;;;;;;;16.00;14.80;;;19.40;1.00;;;;;;2614264;54;21024;-78
2023/07/22 07:02:25;;;;;;;15.97;14.67;;;19.10;1.00;;;;;;2613348;54;20130;-78
2023/07/22 07:08:24;;;;;;;15.00;13.83;;;19.10;1.00;;;;;;2612338;54;20395;-78
2023/07/22 07:14:12;;;;;;;16.30;14.77;;;18.70;1.00;;;;;;2613163;54;20133;-79
2023/07/22 07:19:59;;;;;;;15.80;14.60;;;19.10;1.00;;;;;;2607839;54;20859;-79
2023/07/22 07:25:46;;;;;;;15.87;14.33;;;19.80;1.00;;;;;;2613549;54;20157;-77
2023/07/22 07:31:34;;;;;;;15.87;14.70;;;20.30;1.00;;;;;;2613614;54;20238;-78
2023/07/22 07:37:22;;;;;;;16.10;15.00;;;19.50;1.00;;;;;;2613512;31;20915;-77
2023/07/22 07:43:09;;;;;;;15.57;14.50;;;20.30;1.00;;;;;;2610732;54;20819;-78
2023/07/22 07:49:00;;;;;;;17.17;15.87;;;20.00;1.00;;;;;;2611706;54;20121;-77
2023/07/22 07:54:48;;;;;;;16.70;15.50;;;20.00;1.00;;;;;;2613838;31;20823;-78
2023/07/22 08:00:36;;;;;;;17.10;15.70;;;20.30;1.00;;;;;;2612627;54;20149;-77
2023/07/22 08:10:14;;;;;;;16.77;15.30;;;20.50;1.00;;;;;;2615372;54;20415;-80
2023/07/22 08:16:06;;;;;;;18.07;16.67;;;20.60;1.00;;;;;;2613341;54;21069;-78
2023/07/22 08:21:54;;;;;;;18.57;17.20;;;20.90;1.00;;;;;;2612533;54;20394;-78
2023/07/22 08:27:42;;;;;;;17.37;15.87;;;20.10;1.00;;;;;;2613364;54;20152;-78
2023/07/22 08:33:30;;;;;;;17.20;15.80;;;21.30;1.00;;;;;;2611984;31;20800;-79
2023/07/22 08:39:18;;;;;;;18.80;17.30;;;21.40;1.00;;;;;;2612170;54;20772;-79
2023/07/22 08:45:09;;;;;;;17.83;16.53;;;21.00;1.00;;;;;;2613203;54;20665;-78
2023/07/22 08:51:05;;;;;;;17.17;15.97;;;20.90;1.00;;;;;;2616175;54;20367;-80
2023/07/22 08:56:53;;;;;;;16.70;15.50;;;20.90;1.00;;;;;;2615129;39;20780;-80
2023/07/22 09:02:41;;;;;;;16.10;15.10;;;21.70;1.00;;;;;;2616190;54;20426;-80
2023/07/22 09:05:42;;;;;;;16.57;15.40;;;22.10;1.00;;;;;;2612274;54;20391;-80
2023/07/22 09:08:08;;;;;;;17.73;16.43;;;22.20;1.00;;;;;;2612484;54;20418;-79
2023/07/22 09:13:57;;;;;;;20.03;15.33;;;23.60;1.00;;;;;;2611745;54;20677;-79
2023/07/22 09:19:45;;;;;;;16.77;15.67;;;22.60;1.00;;;;;;2608553;54;21005;-78
2023/07/22 09:25:33;;;;;;;15.50;14.60;;;22.00;1.00;;;;;;2615694;31;20616;-69
2023/07/22 09:31:22;;;;;;;14.93;13.93;;;22.10;1.00;;;;;;2611194;54;20183;-70
2023/07/22 09:37:11;;;;;;;15.83;14.83;;;21.80;1.00;;;;;;2611285;54;20939;-68
2023/07/22 09:43:02;;;;;;;16.27;15.00;;;21.30;1.00;;;;;;2611736;54;20387;-69
2023/07/22 09:48:52;;;;;;;17.80;16.70;;;21.90;1.00;;;;;;2608736;54;20453;-70
2023/07/22 09:54:48;;;;;;;17.40;16.40;;;22.70;1.00;;;;;;2610785;54;21206;-70
2023/07/22 10:00:36;;;;;;;16.27;15.17;;;22.60;1.00;;;;;;2608981;54;20413;-70
2023/07/22 10:10:04;;;;;;;15.67;14.77;;;21.20;1.00;;;;;;2609568;54;20384;-70
2023/07/22 10:13:06;;;;;;;16.43;14.93;;;21.40;1.00;;;;;;2609279;54;20470;-70
2023/07/22 10:15:34;;;;;;;14.50;13.80;;;22.00;1.00;;;;;;2609512;54;20431;-70
2023/07/22 10:21:22;;;;;;;14.43;13.63;;;22.10;1.00;;;;;;2609761;54;21128;-69
2023/07/22 10:27:10;;;;;;;15.00;14.10;;;23.00;1.00;;;;;;2608211;54;20383;-70
2023/07/22 10:32:58;;;;;;;15.30;14.40;;;22.20;1.00;;;;;;2607214;39;21752;-70
2023/07/22 10:45:29;;;;;;;15.10;14.20;;;23.50;1.00;;;;;;2610081;54;20386;-70
2023/07/22 10:51:17;;;;;;;15.43;14.50;;;23.80;1.00;;;;;;2612695;54;20432;-70
2023/07/22 10:57:15;;;;;;;14.57;13.20;;;23.80;1.00;;;;;;2609569;54;20398;-68
2023/07/22 11:03:13;;;;;;;15.07;14.27;;;22.40;1.00;;;;;;2611144;54;20475;-69
2023/07/22 11:12:24;;;;;;;13.50;12.60;;;24.10;1.00;;;;;;2609910;39;20917;-70
2023/07/22 11:18:12;;;;;;;14.40;13.50;;;22.80;1.00;;;;;;2608672;54;20962;-69
2023/07/22 11:24:02;;;;;;;13.40;12.70;;;24.30;1.00;;;;;;2611479;54;20160;-69
2023/07/22 11:29:50;;;;;;;13.33;12.63;;;23.10;1.00;;;;;;2609694;54;20418;-69
2023/07/22 11:35:42;;;;;;;14.60;13.90;;;22.30;1.00;;;;;;2609537;54;20506;-69
2023/07/22 11:41:31;;;;;;;13.70;13.00;;;23.40;1.00;;;;;;2609519;54;21037;-69
2023/07/22 11:47:19;;;;;;;14.23;13.53;;;23.10;1.00;;;;;;2610215;54;20859;-70
2023/07/22 11:53:08;;;;;;;13.30;12.70;;;23.00;1.00;;;;;;2610849;54;20187;-69
2023/07/22 11:58:57;;;;;;;14.40;13.60;;;23.30;1.00;;;;;;2612932;54;20511;-70
2023/07/22 12:04:59;;;;;;;13.87;13.27;;;23.40;1.00;;;;;;2610900;54;20401;-70
2023/07/22 12:07:44;;;;;;;14.03;13.40;;;24.60;1.00;;;;;;2609647;39;20819;-70
2023/07/22 12:10:11;;;;;;;14.73;13.47;;;24.40;1.00;;;;;;2609963;54;20432;-69
2023/07/22 12:16:00;;;;;;;13.57;12.87;;;23.80;1.00;;;;;;2611391;39;20799;-69
2023/07/22 12:21:48;;;;;;;14.63;13.53;;;22.80;1.00;;;;;;2611135;39;20972;-69
2023/07/22 12:27:37;;;;;;;12.80;12.20;;;24.50;1.00;;;;;;2610614;54;20894;-68
2023/07/22 12:33:26;;;;;;;14.50;13.80;;;24.10;1.00;;;;;;2610702;54;21535;-70
2023/07/22 12:39:14;;;;;;;14.17;13.47;;;24.00;1.00;;;;;;2610259;54;20429;-71
2023/07/22 12:45:03;;;;;;;13.47;12.83;;;23.90;1.00;;;;;;2611244;54;20160;-69
2023/07/22 12:50:51;;;;;;;13.97;13.27;;;24.30;1.00;;;;;;2611235;54;21097;-69
2023/07/22 12:56:39;;;;;;;13.70;13.00;;;24.20;1.00;;;;;;2610094;54;20445;-68
2023/07/22 13:02:27;;;;;;;14.97;13.73;;;25.10;1.00;;;;;;2609203;54;20134;-69
2023/07/22 13:12:14;;;;;;;13.67;12.97;;;25.30;1.00;;;;;;2610391;54;20407;-69
2023/07/22 13:18:02;;;;;;;13.73;13.10;;;24.50;1.00;;;;;;2609030;54;20403;-69
2023/07/22 13:23:50;;;;;;;13.90;13.00;;;24.50;1.00;;;;;;2610364;46;20546;-68
2023/07/22 13:29:38;;;;;;;13.87;13.10;;;24.70;1.00;;;;;;2610528;39;20858;-69
2023/07/22 13:35:26;;;;;;;14.60;13.70;;;23.80;1.00;;;;;;2609823;39;20701;-69
2023/07/22 13:41:14;;;;;;;13.87;13.27;;;24.10;1.00;;;;;;2611651;54;20234;-69
2023/07/22 13:47:02;;;;;;;13.70;13.00;;;24.40;1.00;;;;;;2610551;46;20402;-68
2023/07/22 13:52:51;;;;;;;13.43;12.77;;;25.30;1.00;;;;;;2610464;54;20186;-69
2023/07/22 13:58:38;;;;;;;14.03;13.33;;;24.00;1.00;;;;;;2609491;54;20379;-70
2023/07/22 14:04:26;;;;;;;14.70;13.90;;;24.60;1.00;;;;;;2610295;54;20162;-69
2023/07/22 14:10:28;;;;;;;12.80;12.10;;;25.00;1.00;;;;;;2608059;54;20142;-68
2023/07/22 14:16:16;;;;;;;13.47;12.60;;;24.60;1.00;;;;;;2609219;54;20158;-68
2023/07/22 14:22:03;;;;;;;14.73;13.83;;;24.90;1.00;;;;;;2609248;54;20285;-68
2023/07/22 14:27:51;;;;;;;13.10;12.50;;;24.60;1.00;;;;;;2609167;54;20388;-68
2023/07/22 14:33:38;;;;;;;14.30;13.60;;;25.10;1.00;;;;;;2608202;54;20135;-68
2023/07/22 14:39:25;;;;;;;13.50;12.90;;;25.30;1.00;;;;;;2608905;54;20134;-67
2023/07/22 14:45:13;;;;;;;14.37;13.67;;;24.90;1.00;;;;;;2608941;46;20150;-68
2023/07/22 14:51:01;;;;;;;13.80;13.13;;;24.20;1.00;;;;;;2609809;54;20131;-69
2023/07/22 14:56:49;;;;;;;14.60;13.80;;;25.20;1.00;;;;;;2609231;54;20138;-68
2023/07/22 15:02:37;;;;;;;14.93;14.13;;;24.80;1.00;;;;;;2608131;54;20203;-69
2023/07/22 15:12:15;;;;;;;14.43;13.40;;;24.70;1.00;;;;;;2610690;54;20435;-69
2023/07/22 15:18:03;;;;;;;13.40;12.80;;;24.30;1.00;;;;;;2608696;54;20452;-69
2023/07/22 15:23:51;;;;;;;13.83;13.00;;;24.30;1.00;;;;;;2609336;54;20157;-69
2023/07/22 15:29:39;;;;;;;14.27;13.47;;;23.70;1.00;;;;;;2610336;54;20807;-68
2023/07/22 15:35:27;;;;;;;14.50;13.70;;;24.50;1.00;;;;;;2610167;54;20130;-69
2023/07/22 15:41:15;;;;;;;14.40;13.67;;;24.80;1.00;;;;;;2610521;39;20581;-68
2023/07/22 15:47:03;;;;;;;14.50;13.63;;;24.20;1.00;;;;;;2610936;54;20421;-69
2023/07/22 15:52:51;;;;;;;14.17;13.33;;;23.60;1.00;;;;;;2610635;54;20383;-69
2023/07/22 15:58:39;;;;;;;15.20;14.23;;;23.30;1.00;;;;;;2609615;54;20133;-68
2023/07/22 16:04:27;;;;;;;14.40;13.60;;;23.50;1.00;;;;;;2610057;39;20694;-69
2023/07/22 16:07:45;;;;;;;13.80;13.10;;;23.00;1.00;;;;;;2608778;50;20424;-70
2023/07/22 16:10:10;;;;;;;14.50;13.80;;;22.90;1.00;;;;;;2610407;54;20162;-69
2023/07/22 16:13:14;;;;;;;14.30;13.60;;;22.80;1.00;;;;;;2611155;54;21030;-71
2023/07/22 16:15:39;;;;;;;13.17;12.47;;;23.30;1.00;;;;;;2609121;54;20197;-69
2023/07/22 16:21:27;;;;;;;13.63;12.73;;;24.00;1.00;;;;;;2610185;39;20519;-69
2023/07/22 16:27:15;;;;;;;13.70;13.00;;;23.10;1.00;;;;;;2610457;54;20154;-69
2023/07/22 16:33:03;;;;;;;13.43;12.63;;;23.30;1.00;;;;;;2610935;54;20164;-69
2023/07/22 16:38:51;;;;;;;13.47;12.77;;;23.20;1.00;;;;;;2609250;54;20130;-70
2023/07/22 16:44:38;;;;;;;14.93;14.13;;;22.80;1.00;;;;;;2609674;54;20289;-69
2023/07/22 16:50:27;;;;;;;13.87;13.07;;;22.60;1.00;;;;;;2610417;54;20134;-69
2023/07/22 16:56:14;;;;;;;13.80;13.10;;;23.00;1.00;;;;;;2610653;54;20389;-69
2023/07/22 17:02:03;;;;;;;13.73;13.13;;;22.90;1.00;;;;;;2608049;54;20206;-68
2023/07/22 17:14:16;;;;;;;13.23;12.63;;;22.80;1.00;;;;;;2611240;54;20439;-69
2023/07/22 17:20:05;;;;;;;15.17;14.47;;;22.60;1.00;;;;;;2610322;46;20146;-69
2023/07/22 17:25:52;;;;;;;14.13;13.33;;;22.50;1.00;;;;;;2611044;39;21432;-69
2023/07/22 17:31:40;;;;;;;15.00;14.10;;;22.20;1.00;;;;;;2610873;54;20470;-70
2023/07/22 17:37:28;;;;;;;15.03;14.10;;;22.00;1.00;;;;;;2611787;54;20160;-69
2023/07/22 17:43:15;;;;;;;15.00;14.10;;;22.00;1.00;;;;;;2615067;39;20234;-70
2023/07/22 17:49:03;;;;;;;14.70;13.90;;;22.00;1.00;;;;;;2613351;54;20134;-69
2023/07/22 17:54:51;;;;;;;13.97;13.27;;;21.80;1.00;;;;;;2613414;39;20566;-68
2023/07/22 18:00:38;;;;;;;14.80;13.80;;;21.50;1.00;;;;;;2613858;54;20669;-70
2023/07/22 18:06:27;;;;;;;14.90;13.97;;;21.50;1.00;;;;;;2613537;54;20133;-70
2023/07/22 18:12:14;;;;;;;13.90;13.30;;;21.40;1.00;;;;;;2614189;54;20134;-70
2023/07/22 18:18:02;;;;;;;15.60;14.60;;;21.30;1.00;;;;;;2613055;54;20134;-69
2023/07/22 18:23:49;;;;;;;14.00;13.27;;;21.20;1.00;;;;;;2612523;54;20251;-68
2023/07/22 18:29:38;;;;;;;14.70;13.90;;;21.20;1.00;;;;;;2613116;54;20147;-70
2023/07/22 18:35:26;;;;;;;14.77;13.97;;;21.10;1.00;;;;;;2613925;54;20387;-68
2023/07/22 18:41:14;;;;;;;15.23;14.33;;;21.20;1.00;;;;;;2612574;54;20140;-68
2023/07/22 18:47:01;;;;;;;14.73;14.00;;;21.00;1.00;;;;;;2613947;54;20166;-69
2023/07/22 18:52:49;;;;;;;15.03;13.90;;;21.00;1.00;;;;;;2613866;54;20135;-69
2023/07/22 18:58:37;;;;;;;14.50;13.70;;;20.90;1.00;;;;;;2612416;54;20648;-70
2023/07/22 19:04:24;;;;;;;14.47;13.50;;;20.80;1.00;;;;;;2614048;54;20165;-68
2023/07/22 19:07:46;;;;;;;14.10;13.20;;;20.80;1.00;;;;;;2614217;39;20796;-68
2023/07/22 19:10:11;;;;;;;13.50;12.90;;;20.70;1.00;;;;;;2613381;46;20189;-68
2023/07/22 19:15:59;;;;;;;14.80;13.87;;;20.70;1.00;;;;;;2608936;54;20134;-68
2023/07/22 19:21:47;;;;;;;15.03;14.10;;;20.60;1.00;;;;;;2611044;54;20134;-70
2023/07/22 19:27:34;;;;;;;15.80;14.90;;;20.40;1.00;;;;;;2612575;54;20130;-69
2023/07/22 19:33:23;;;;;;;14.60;13.40;;;20.40;1.00;;;;;;2612154;54;20123;-68
2023/07/22 19:39:11;;;;;;;14.70;13.80;;;20.30;1.00;;;;;;2610411;39;21228;-69
2023/07/22 19:44:59;;;;;;;15.30;14.40;;;20.20;1.00;;;;;;2613005;54;20197;-70
2023/07/22 19:50:53;;;;;;;15.10;14.20;;;20.20;1.00;;;;;;2613732;54;20148;-68
2023/07/22 19:56:41;;;;;;;13.60;12.57;;;20.10;1.00;;;;;;2612621;54;20429;-70
2023/07/22 20:02:29;;;;;;;13.90;13.20;;;19.90;1.00;;;;;;2613053;54;20649;-69
2023/07/22 20:12:19;;;;;;;13.10;12.30;;;19.70;1.00;;;;;;2614018;46;20415;-69
2023/07/22 20:18:07;;;;;;;12.90;12.20;;;19.60;1.00;;;;;;2612524;39;20836;-69
2023/07/22 20:23:55;;;;;;;13.20;12.17;;;19.30;1.00;;;;;;2612379;54;20135;-69
2023/07/22 20:29:42;;;;;;;12.00;11.40;;;18.90;1.00;;;;;;2613288;54;20127;-68
2023/07/22 20:35:30;;;;;;;13.40;12.27;;;18.90;1.00;;;;;;2613684;54;20130;-68
2023/07/22 20:41:17;;;;;;;12.77;12.07;;;18.80;1.00;;;;;;2614264;54;20665;-69
2023/07/22 20:47:05;;;;;;;12.23;11.50;;;18.60;1.00;;;;;;2612316;54;20134;-68
2023/07/22 20:52:53;;;;;;;11.70;11.10;;;18.40;1.00;;;;;;2611750;54;20150;-69
2023/07/22 20:58:40;;;;;;;10.97;10.27;;;18.30;1.00;;;;;;2612461;54;20154;-68
2023/07/22 21:04:28;;;;;;;10.87;10.20;;;18.00;1.00;;;;;;2614519;54;20125;-68
2023/07/22 21:10:11;;;;;;;10.77;9.97;;;17.90;1.00;;;;;;2614229;54;20169;-69
2023/07/22 21:15:58;;;;;;;9.90;9.40;;;17.70;1.00;;;;;;2614433;54;20629;-69
2023/07/22 21:21:46;;;;;;;9.00;8.27;;;17.70;1.00;;;;;;2614740;54;20134;-67
2023/07/22 21:27:34;;;;;;;8.13;7.63;;;17.50;1.00;;;;;;2614259;54;20422;-68
2023/07/22 21:33:22;;;;;;;8.17;7.20;;;17.40;1.00;;;;;;2614341;54;20150;-69
2023/07/22 21:39:10;;;;;;;7.90;7.17;;;17.30;1.00;;;;;;2614233;54;20409;-68
2023/07/22 21:44:58;;;;;;;7.27;6.67;;;17.10;1.00;;;;;;2613889;54;20738;-68
2023/07/22 21:50:46;;;;;;;7.00;6.50;;;17.00;1.00;;;;;;2614088;54;21099;-68
2023/07/22 21:56:34;;;;;;;7.90;7.10;;;17.00;1.00;;;;;;2613518;54;20114;-67
2023/07/22 22:02:21;;;;;;;6.70;6.03;;;17.00;1.00;;;;;;2612524;54;20158;-69
2023/07/22 22:12:18;;;;;;;7.10;6.50;;;16.90;1.00;;;;;;2613236;54;20969;-67
2023/07/22 22:15:21;;;;;;;7.03;6.30;;;16.80;1.00;;;;;;2614294;54;20400;-67
2023/07/22 22:17:47;;;;;;;7.77;7.07;;;16.80;1.00;;;;;;2613107;54;20419;-67
2023/07/22 22:23:35;;;;;;;7.50;6.80;;;16.90;1.00;;;;;;2614268;54;20133;-67
2023/07/22 22:29:24;;;;;;;8.07;7.40;;;16.80;1.00;;;;;;2614322;54;20445;-67
2023/07/22 22:35:12;;;;;;;8.33;7.57;;;16.80;1.00;;;;;;2614312;54;20388;-67
2023/07/22 22:40:59;;;;;;;8.20;7.50;;;16.90;1.00;;;;;;2611912;54;20148;-67
2023/07/22 22:46:47;;;;;;;9.17;8.27;;;16.90;1.00;;;;;;2613870;54;20134;-68
2023/07/22 22:52:36;;;;;;;11.17;8.60;;;16.80;1.00;;;;;;2613744;54;20158;-68
2023/07/22 22:58:24;;;;;;;7.20;6.43;;;16.70;1.00;;;;;;2613574;54;20411;-68
2023/07/22 23:04:11;;;;;;;40.30;8.00;;;16.60;1.00;;;;;;2613049;54;20138;-70
2023/07/22 23:09:59;;;;;;;7.70;7.03;;;16.50;1.00;;;;;;2613577;31;20660;-68
2023/07/22 23:15:48;;;;;;;9.60;6.33;;;16.50;1.00;;;;;;2613802;54;20261;-68
2023/07/22 23:21:35;;;;;;;7.37;6.20;;;16.50;1.00;;;;;;2613052;54;20398;-66
2023/07/22 23:27:23;;;;;;;6.70;6.10;;;16.50;1.00;;;;;;2614361;39;20593;-68
2023/07/22 23:33:12;;;;;;;6.73;6.13;;;16.40;1.00;;;;;;2612964;54;20130;-67
2023/07/22 23:39:01;;;;;;;6.07;5.50;;;16.30;1.00;;;;;;2613795;54;20407;-67
2023/07/22 23:44:48;;;;;;;6.43;5.77;;;16.30;1.00;;;;;;2614789;54;20379;-67
2023/07/22 23:50:36;;;;;;;8.20;5.77;;;16.10;1.00;;;;;;2613868;54;20126;-68
2023/07/22 23:56:24;;;;;;;6.67;5.00;;;16.10;1.00;;;;;;2613015;54;20395;-67
